sensor_id;sensor_type;location;lat;lon;timestamp;temperature;humidity
9919;DHT22;4998;51.024;13.828;2024-03-25T00:02:18;9.70;71.40
9919;DHT22;4998;51.024;13.828;2024-03-25T00:04:46;9.60;71.60
9919;DHT22;4998;51.024;13.828;2024-03-25T00:07:12;9.60;71.70
9919;DHT22;4998;51.024;13.828;2024-03-25T00:09:41;9.50;71.60
9919;DHT22;4998;51.024;13.828;2024-03-25T00:12:08;9.50;72.00
9919;DHT22;4998;51.024;13.828;2024-03-25T00:14:35;9.50;72.20
9919;DHT22;4998;51.024;13.828;2024-03-25T00:17:02;9.40;72.00
9919;DHT22;4998;51.024;13.828;2024-03-25T00:19:29;9.40;72.20
9919;DHT22;4998;51.024;13.828;2024-03-25T00:21:57;9.40;72.40
9919;DHT22;4998;51.024;13.828;2024-03-25T00:24:24;9.40;72.50
9919;DHT22;4998;51.024;13.828;2024-03-25T00:26:52;9.30;72.80
9919;DHT22;4998;51.024;13.828;2024-03-25T00:29:19;9.30;73.40
9919;DHT22;4998;51.024;13.828;2024-03-25T00:31:46;9.30;73.50
9919;DHT22;4998;51.024;13.828;2024-03-25T00:34:13;9.30;73.90
9919;DHT22;4998;51.024;13.828;2024-03-25T00:36:39;9.30;74.20
9919;DHT22;4998;51.024;13.828;2024-03-25T00:39:07;9.20;74.60
9919;DHT22;4998;51.024;13.828;2024-03-25T00:41:34;9.10;75.10
9919;DHT22;4998;51.024;13.828;2024-03-25T00:44:03;9.10;75.40
9919;DHT22;4998;51.024;13.828;2024-03-25T00:46:29;9.00;75.50
9919;DHT22;4998;51.024;13.828;2024-03-25T00:48:56;9.00;75.50
9919;DHT22;4998;51.024;13.828;2024-03-25T00:51:23;9.00;75.80
9919;DHT22;4998;51.024;13.828;2024-03-25T00:53:50;8.90;75.90
9919;DHT22;4998;51.024;13.828;2024-03-25T00:56:16;8.90;76.10
9919;DHT22;4998;51.024;13.828;2024-03-25T00:58:43;8.90;76.20
9919;DHT22;4998;51.024;13.828;2024-03-25T01:01:13;8.80;76.40
9919;DHT22;4998;51.024;13.828;2024-03-25T01:03:41;8.80;76.50
9919;DHT22;4998;51.024;13.828;2024-03-25T01:06:07;8.80;76.90
9919;DHT22;4998;51.024;13.828;2024-03-25T01:08:34;8.70;77.90
9919;DHT22;4998;51.024;13.828;2024-03-25T01:11:01;8.70;77.20
9919;DHT22;4998;51.024;13.828;2024-03-25T01:13:28;8.70;77.30
9919;DHT22;4998;51.024;13.828;2024-03-25T01:15:54;8.70;77.80
9919;DHT22;4998;51.024;13.828;2024-03-25T01:18:23;8.70;78.10
9919;DHT22;4998;51.024;13.828;2024-03-25T01:20:49;8.70;78.30
9919;DHT22;4998;51.024;13.828;2024-03-25T01:23:16;8.70;78.40
9919;DHT22;4998;51.024;13.828;2024-03-25T01:25:43;8.70;78.70
9919;DHT22;4998;51.024;13.828;2024-03-25T01:28:10;8.70;78.90
9919;DHT22;4998;51.024;13.828;2024-03-25T01:30:36;8.70;79.00
9919;DHT22;4998;51.024;13.828;2024-03-25T01:33:05;8.70;79.30
9919;DHT22;4998;51.024;13.828;2024-03-25T01:35:32;8.70;79.70
9919;DHT22;4998;51.024;13.828;2024-03-25T01:37:59;8.70;80.30
9919;DHT22;4998;51.024;13.828;2024-03-25T01:40:26;8.70;80.50
9919;DHT22;4998;51.024;13.828;2024-03-25T01:42:56;8.70;80.50
9919;DHT22;4998;51.024;13.828;2024-03-25T01:45:23;8.70;80.70
9919;DHT22;4998;51.024;13.828;2024-03-25T01:47:51;8.70;80.50
9919;DHT22;4998;51.024;13.828;2024-03-25T01:50:18;8.70;80.30
9919;DHT22;4998;51.024;13.828;2024-03-25T01:52:48;8.70;80.50
9919;DHT22;4998;51.024;13.828;2024-03-25T01:55:16;8.70;80.50
9919;DHT22;4998;51.024;13.828;2024-03-25T01:57:45;8.70;80.50
9919;DHT22;4998;51.024;13.828;2024-03-25T02:00:12;8.70;80.60
9919;DHT22;4998;51.024;13.828;2024-03-25T02:02:42;8.70;80.50
9919;DHT22;4998;51.024;13.828;2024-03-25T02:05:10;8.70;80.60
9919;DHT22;4998;51.024;13.828;2024-03-25T02:07:37;8.60;80.60
9919;DHT22;4998;51.024;13.828;2024-03-25T02:10:07;8.60;80.40
9919;DHT22;4998;51.024;13.828;2024-03-25T02:12:36;8.60;80.30
9919;DHT22;4998;51.024;13.828;2024-03-25T02:15:03;8.50;80.10
9919;DHT22;4998;51.024;13.828;2024-03-25T02:17:31;8.50;80.00
9919;DHT22;4998;51.024;13.828;2024-03-25T02:19:57;8.50;80.20
9919;DHT22;4998;51.024;13.828;2024-03-25T02:22:24;8.40;80.20
9919;DHT22;4998;51.024;13.828;2024-03-25T02:24:52;8.40;80.30
9919;DHT22;4998;51.024;13.828;2024-03-25T02:27:21;8.30;80.50
9919;DHT22;4998;51.024;13.828;2024-03-25T02:29:48;8.30;80.60
9919;DHT22;4998;51.024;13.828;2024-03-25T02:32:15;8.30;80.80
9919;DHT22;4998;51.024;13.828;2024-03-25T02:34:43;8.30;81.00
9919;DHT22;4998;51.024;13.828;2024-03-25T02:37:11;8.30;81.30
9919;DHT22;4998;51.024;13.828;2024-03-25T02:39:37;8.30;81.40
9919;DHT22;4998;51.024;13.828;2024-03-25T02:42:05;8.30;81.80
9919;DHT22;4998;51.024;13.828;2024-03-25T02:44:33;8.30;81.90
9919;DHT22;4998;51.024;13.828;2024-03-25T02:47:01;8.30;82.20
9919;DHT22;4998;51.024;13.828;2024-03-25T02:49:28;8.30;82.60
9919;DHT22;4998;51.024;13.828;2024-03-25T02:51:55;8.30;82.60
9919;DHT22;4998;51.024;13.828;2024-03-25T02:54:21;8.30;82.70
9919;DHT22;4998;51.024;13.828;2024-03-25T02:56:49;8.30;82.80
9919;DHT22;4998;51.024;13.828;2024-03-25T02:59:15;8.30;82.90
9919;DHT22;4998;51.024;13.828;2024-03-25T03:01:43;8.40;83.30
9919;DHT22;4998;51.024;13.828;2024-03-25T03:04:10;8.40;83.60
9919;DHT22;4998;51.024;13.828;2024-03-25T03:06:37;8.40;83.80
9919;DHT22;4998;51.024;13.828;2024-03-25T03:09:03;8.40;83.90
9919;DHT22;4998;51.024;13.828;2024-03-25T03:11:31;8.40;84.10
9919;DHT22;4998;51.024;13.828;2024-03-25T03:13:57;8.50;84.30
9919;DHT22;4998;51.024;13.828;2024-03-25T03:16:25;8.50;84.30
9919;DHT22;4998;51.024;13.828;2024-03-25T03:18:52;8.50;84.70
9919;DHT22;4998;51.024;13.828;2024-03-25T03:21:20;8.50;84.70
9919;DHT22;4998;51.024;13.828;2024-03-25T03:23:46;8.60;84.80
9919;DHT22;4998;51.024;13.828;2024-03-25T03:26:13;8.60;84.70
9919;DHT22;4998;51.024;13.828;2024-03-25T03:28:40;8.60;84.70
9919;DHT22;4998;51.024;13.828;2024-03-25T03:31:07;8.70;84.80
9919;DHT22;4998;51.024;13.828;2024-03-25T03:33:33;8.70;84.90
9919;DHT22;4998;51.024;13.828;2024-03-25T03:36:02;8.70;85.00
9919;DHT22;4998;51.024;13.828;2024-03-25T03:38:28;8.70;84.90
9919;DHT22;4998;51.024;13.828;2024-03-25T03:40:57;8.80;84.90
9919;DHT22;4998;51.024;13.828;2024-03-25T03:43:24;8.80;85.00
9919;DHT22;4998;51.024;13.828;2024-03-25T03:45:51;8.80;84.70
9919;DHT22;4998;51.024;13.828;2024-03-25T03:48:18;8.80;84.60
9919;DHT22;4998;51.024;13.828;2024-03-25T03:50:45;8.90;84.50
9919;DHT22;4998;51.024;13.828;2024-03-25T03:53:13;8.90;84.30
9919;DHT22;4998;51.024;13.828;2024-03-25T03:55:40;8.90;84.30
9919;DHT22;4998;51.024;13.828;2024-03-25T03:58:06;8.90;84.20
9919;DHT22;4998;51.024;13.828;2024-03-25T04:00:34;9.00;84.10
9919;DHT22;4998;51.024;13.828;2024-03-25T04:03:01;9.00;84.90
9919;DHT22;4998;51.024;13.828;2024-03-25T04:05:31;9.00;83.90
9919;DHT22;4998;51.024;13.828;2024-03-25T04:07:57;9.00;83.90
9919;DHT22;4998;51.024;13.828;2024-03-25T04:10:27;9.00;83.60
9919;DHT22;4998;51.024;13.828;2024-03-25T04:12:54;9.00;83.70
9919;DHT22;4998;51.024;13.828;2024-03-25T04:15:22;9.10;83.50
9919;DHT22;4998;51.024;13.828;2024-03-25T04:17:48;9.10;83.60
9919;DHT22;4998;51.024;13.828;2024-03-25T04:20:16;9.00;83.40
9919;DHT22;4998;51.024;13.828;2024-03-25T04:22:42;9.00;83.40
9919;DHT22;4998;51.024;13.828;2024-03-25T04:25:09;9.10;83.50
9919;DHT22;4998;51.024;13.828;2024-03-25T04:27:38;9.10;83.50
9919;DHT22;4998;51.024;13.828;2024-03-25T04:30:07;9.00;83.40
9919;DHT22;4998;51.024;13.828;2024-03-25T04:32:34;9.00;83.40
9919;DHT22;4998;51.024;13.828;2024-03-25T04:35:02;9.10;83.50
9919;DHT22;4998;51.024;13.828;2024-03-25T04:37:29;9.10;83.00
9919;DHT22;4998;51.024;13.828;2024-03-25T04:39:56;9.10;82.80
9919;DHT22;4998;51.024;13.828;2024-03-25T04:42:22;9.10;82.40
9919;DHT22;4998;51.024;13.828;2024-03-25T04:44:51;9.10;82.50
9919;DHT22;4998;51.024;13.828;2024-03-25T04:47:17;9.10;82.30
9919;DHT22;4998;51.024;13.828;2024-03-25T04:49:44;9.20;82.30
9919;DHT22;4998;51.024;13.828;2024-03-25T04:52:10;9.20;82.20
9919;DHT22;4998;51.024;13.828;2024-03-25T04:54:38;9.20;82.10
9919;DHT22;4998;51.024;13.828;2024-03-25T04:57:04;9.30;82.10
9919;DHT22;4998;51.024;13.828;2024-03-25T04:59:31;9.30;82.00
9919;DHT22;4998;51.024;13.828;2024-03-25T05:02:00;9.30;81.80
9919;DHT22;4998;51.024;13.828;2024-03-25T05:04:26;9.30;81.60
9919;DHT22;4998;51.024;13.828;2024-03-25T05:06:52;9.20;81.50
9919;DHT22;4998;51.024;13.828;2024-03-25T05:09:19;9.30;81.50
9919;DHT22;4998;51.024;13.828;2024-03-25T05:11:45;9.30;81.50
9919;DHT22;4998;51.024;13.828;2024-03-25T05:14:11;9.20;81.30
9919;DHT22;4998;51.024;13.828;2024-03-25T05:16:38;9.20;81.30
9919;DHT22;4998;51.024;13.828;2024-03-25T05:19:05;9.20;81.30
9919;DHT22;4998;51.024;13.828;2024-03-25T05:21:32;9.20;81.30
9919;DHT22;4998;51.024;13.828;2024-03-25T05:23:59;9.30;81.40
9919;DHT22;4998;51.024;13.828;2024-03-25T05:26:26;9.20;81.30
9919;DHT22;4998;51.024;13.828;2024-03-25T05:28:53;9.20;81.30
9919;DHT22;4998;51.024;13.828;2024-03-25T05:31:20;9.20;81.30
9919;DHT22;4998;51.024;13.828;2024-03-25T05:33:46;9.20;81.30
9919;DHT22;4998;51.024;13.828;2024-03-25T05:36:14;9.20;81.30
9919;DHT22;4998;51.024;13.828;2024-03-25T05:38:42;9.10;81.40
9919;DHT22;4998;51.024;13.828;2024-03-25T05:41:08;9.20;81.40
9919;DHT22;4998;51.024;13.828;2024-03-25T05:43:36;9.20;81.40
9919;DHT22;4998;51.024;13.828;2024-03-25T05:46:03;9.30;81.60
9919;DHT22;4998;51.024;13.828;2024-03-25T05:48:29;9.30;81.50
9919;DHT22;4998;51.024;13.828;2024-03-25T05:50:59;9.20;81.30
9919;DHT22;4998;51.024;13.828;2024-03-25T05:53:28;9.20;81.10
9919;DHT22;4998;51.024;13.828;2024-03-25T05:55:55;9.20;81.00
9919;DHT22;4998;51.024;13.828;2024-03-25T05:58:22;9.20;80.90
9919;DHT22;4998;51.024;13.828;2024-03-25T06:00:49;9.10;81.70
9919;DHT22;4998;51.024;13.828;2024-03-25T06:03:15;9.20;82.00
9919;DHT22;4998;51.024;13.828;2024-03-25T06:05:42;9.20;82.10
9919;DHT22;4998;51.024;13.828;2024-03-25T06:08:09;9.30;82.50
9919;DHT22;4998;51.024;13.828;2024-03-25T06:10:37;9.40;82.60
9919;DHT22;4998;51.024;13.828;2024-03-25T06:13:04;9.50;81.00
9919;DHT22;4998;51.024;13.828;2024-03-25T06:15:30;9.50;80.40
9919;DHT22;4998;51.024;13.828;2024-03-25T06:17:56;9.50;79.90
9919;DHT22;4998;51.024;13.828;2024-03-25T06:20:23;9.50;79.60
9919;DHT22;4998;51.024;13.828;2024-03-25T06:22:49;9.50;79.50
9919;DHT22;4998;51.024;13.828;2024-03-25T06:25:15;9.50;79.50
9919;DHT22;4998;51.024;13.828;2024-03-25T06:27:44;9.50;79.40
9919;DHT22;4998;51.024;13.828;2024-03-25T06:30:11;9.50;79.40
9919;DHT22;4998;51.024;13.828;2024-03-25T06:32:56;9.40;79.50
9919;DHT22;4998;51.024;13.828;2024-03-25T06:35:43;9.40;79.50
9919;DHT22;4998;51.024;13.828;2024-03-25T06:38:09;9.40;79.70
9919;DHT22;4998;51.024;13.828;2024-03-25T06:40:35;9.50;79.80
9919;DHT22;4998;51.024;13.828;2024-03-25T06:43:03;9.40;79.70
9919;DHT22;4998;51.024;13.828;2024-03-25T06:45:29;9.40;79.70
9919;DHT22;4998;51.024;13.828;2024-03-25T06:47:56;9.50;79.60
9919;DHT22;4998;51.024;13.828;2024-03-25T06:50:23;9.50;79.70
9919;DHT22;4998;51.024;13.828;2024-03-25T06:52:49;9.50;79.60
9919;DHT22;4998;51.024;13.828;2024-03-25T06:55:16;9.50;79.60
9919;DHT22;4998;51.024;13.828;2024-03-25T06:57:42;9.50;79.30
9919;DHT22;4998;51.024;13.828;2024-03-25T07:00:10;9.50;79.30
9919;DHT22;4998;51.024;13.828;2024-03-25T07:02:37;9.50;79.20
9919;DHT22;4998;51.024;13.828;2024-03-25T07:05:04;9.50;79.00
9919;DHT22;4998;51.024;13.828;2024-03-25T07:07:30;9.50;79.00
9919;DHT22;4998;51.024;13.828;2024-03-25T07:09:57;9.50;78.80
9919;DHT22;4998;51.024;13.828;2024-03-25T07:12:23;9.50;78.60
9919;DHT22;4998;51.024;13.828;2024-03-25T07:14:49;9.50;78.60
9919;DHT22;4998;51.024;13.828;2024-03-25T07:17:17;9.60;78.70
9919;DHT22;4998;51.024;13.828;2024-03-25T07:19:43;9.60;78.40
9919;DHT22;4998;51.024;13.828;2024-03-25T07:22:09;9.60;78.30
9919;DHT22;4998;51.024;13.828;2024-03-25T07:24:35;9.70;78.30
9919;DHT22;4998;51.024;13.828;2024-03-25T07:27:02;9.70;78.30
9919;DHT22;4998;51.024;13.828;2024-03-25T07:29:28;9.70;78.30
9919;DHT22;4998;51.024;13.828;2024-03-25T07:31:55;9.70;78.40
9919;DHT22;4998;51.024;13.828;2024-03-25T07:34:23;9.80;78.60
9919;DHT22;4998;51.024;13.828;2024-03-25T07:36:49;9.80;78.40
9919;DHT22;4998;51.024;13.828;2024-03-25T07:39:15;9.90;78.40
9919;DHT22;4998;51.024;13.828;2024-03-25T07:41:41;9.90;78.30
9919;DHT22;4998;51.024;13.828;2024-03-25T07:44:07;9.90;78.10
9919;DHT22;4998;51.024;13.828;2024-03-25T07:46:33;9.90;77.90
9919;DHT22;4998;51.024;13.828;2024-03-25T07:49:00;10.00;76.70
9919;DHT22;4998;51.024;13.828;2024-03-25T07:51:27;10.00;76.60
9919;DHT22;4998;51.024;13.828;2024-03-25T07:53:53;10.00;76.50
9919;DHT22;4998;51.024;13.828;2024-03-25T07:56:23;10.00;76.10
9919;DHT22;4998;51.024;13.828;2024-03-25T07:58:49;10.00;75.60
9919;DHT22;4998;51.024;13.828;2024-03-25T08:01:15;10.10;75.60
9919;DHT22;4998;51.024;13.828;2024-03-25T08:03:41;10.10;75.60
9919;DHT22;4998;51.024;13.828;2024-03-25T08:06:07;10.10;75.20
9919;DHT22;4998;51.024;13.828;2024-03-25T08:08:35;10.10;75.30
9919;DHT22;4998;51.024;13.828;2024-03-25T08:11:01;10.10;75.30
9919;DHT22;4998;51.024;13.828;2024-03-25T08:13:27;10.10;75.30
9919;DHT22;4998;51.024;13.828;2024-03-25T08:15:54;10.10;75.20
9919;DHT22;4998;51.024;13.828;2024-03-25T08:18:20;10.20;75.10
9919;DHT22;4998;51.024;13.828;2024-03-25T08:20:47;10.20;74.80
9919;DHT22;4998;51.024;13.828;2024-03-25T08:23:13;10.30;74.90
9919;DHT22;4998;51.024;13.828;2024-03-25T08:25:40;10.30;74.80
9919;DHT22;4998;51.024;13.828;2024-03-25T08:28:07;10.40;75.00
9919;DHT22;4998;51.024;13.828;2024-03-25T08:30:33;10.40;75.00
9919;DHT22;4998;51.024;13.828;2024-03-25T08:32:59;10.50;74.70
9919;DHT22;4998;51.024;13.828;2024-03-25T08:35:25;10.50;74.30
9919;DHT22;4998;51.024;13.828;2024-03-25T08:37:51;10.50;74.10
9919;DHT22;4998;51.024;13.828;2024-03-25T08:40:17;10.60;74.10
9919;DHT22;4998;51.024;13.828;2024-03-25T08:42:45;10.60;74.10
9919;DHT22;4998;51.024;13.828;2024-03-25T08:45:11;10.70;74.10
9919;DHT22;4998;51.024;13.828;2024-03-25T08:47:38;10.70;73.90
9919;DHT22;4998;51.024;13.828;2024-03-25T08:50:04;10.70;73.30
9919;DHT22;4998;51.024;13.828;2024-03-25T08:52:31;10.70;72.70
9919;DHT22;4998;51.024;13.828;2024-03-25T08:54:57;10.70;72.50
9919;DHT22;4998;51.024;13.828;2024-03-25T08:57:24;10.80;72.60
9919;DHT22;4998;51.024;13.828;2024-03-25T08:59:51;10.70;72.60
9919;DHT22;4998;51.024;13.828;2024-03-25T09:02:18;10.80;72.30
9919;DHT22;4998;51.024;13.828;2024-03-25T09:04:44;10.80;72.20
9919;DHT22;4998;51.024;13.828;2024-03-25T09:07:10;10.80;72.70
9919;DHT22;4998;51.024;13.828;2024-03-25T09:09:37;10.80;71.30
9919;DHT22;4998;51.024;13.828;2024-03-25T09:12:21;10.80;70.40
9919;DHT22;4998;51.024;13.828;2024-03-25T09:14:48;10.70;70.60
9919;DHT22;4998;51.024;13.828;2024-03-25T09:17:15;10.70;70.20
9919;DHT22;4998;51.024;13.828;2024-03-25T09:19:42;10.70;70.50
9919;DHT22;4998;51.024;13.828;2024-03-25T09:22:08;10.70;70.80
9919;DHT22;4998;51.024;13.828;2024-03-25T09:24:34;10.70;70.80
9919;DHT22;4998;51.024;13.828;2024-03-25T09:27:01;10.70;70.70
9919;DHT22;4998;51.024;13.828;2024-03-25T09:29:27;10.70;70.60
9919;DHT22;4998;51.024;13.828;2024-03-25T09:31:53;10.70;70.60
9919;DHT22;4998;51.024;13.828;2024-03-25T09:34:21;10.70;70.80
9919;DHT22;4998;51.024;13.828;2024-03-25T09:36:47;10.70;70.70
9919;DHT22;4998;51.024;13.828;2024-03-25T09:39:13;10.70;70.80
9919;DHT22;4998;51.024;13.828;2024-03-25T09:41:43;10.70;70.60
9919;DHT22;4998;51.024;13.828;2024-03-25T09:44:09;10.70;70.40
9919;DHT22;4998;51.024;13.828;2024-03-25T09:46:36;10.80;70.40
9919;DHT22;4998;51.024;13.828;2024-03-25T09:49:03;10.80;70.30
9919;DHT22;4998;51.024;13.828;2024-03-25T09:51:31;10.80;70.20
9919;DHT22;4998;51.024;13.828;2024-03-25T09:53:58;10.90;69.90
9919;DHT22;4998;51.024;13.828;2024-03-25T09:56:24;10.90;69.60
9919;DHT22;4998;51.024;13.828;2024-03-25T09:58:50;11.00;69.30
9919;DHT22;4998;51.024;13.828;2024-03-25T10:01:16;11.00;68.60
9919;DHT22;4998;51.024;13.828;2024-03-25T10:03:43;11.00;68.80
9919;DHT22;4998;51.024;13.828;2024-03-25T10:06:09;11.00;68.50
9919;DHT22;4998;51.024;13.828;2024-03-25T10:08:37;11.00;68.20
9919;DHT22;4998;51.024;13.828;2024-03-25T10:11:04;11.10;68.30
9919;DHT22;4998;51.024;13.828;2024-03-25T10:13:30;11.10;68.20
9919;DHT22;4998;51.024;13.828;2024-03-25T10:15:56;11.10;67.90
9919;DHT22;4998;51.024;13.828;2024-03-25T10:18:22;11.10;67.70
9919;DHT22;4998;51.024;13.828;2024-03-25T10:20:48;11.20;68.00
9919;DHT22;4998;51.024;13.828;2024-03-25T10:23:15;11.20;68.10
9919;DHT22;4998;51.024;13.828;2024-03-25T10:25:42;11.20;67.60
9919;DHT22;4998;51.024;13.828;2024-03-25T10:28:09;11.20;67.80
9919;DHT22;4998;51.024;13.828;2024-03-25T10:30:35;11.20;67.60
9919;DHT22;4998;51.024;13.828;2024-03-25T10:33:02;11.20;67.70
9919;DHT22;4998;51.024;13.828;2024-03-25T10:35:30;11.30;67.60
9919;DHT22;4998;51.024;13.828;2024-03-25T10:37:58;11.30;67.50
9919;DHT22;4998;51.024;13.828;2024-03-25T10:40:27;11.30;67.20
9919;DHT22;4998;51.024;13.828;2024-03-25T10:43:01;11.30;67.20
9919;DHT22;4998;51.024;13.828;2024-03-25T10:45:31;11.30;66.80
9919;DHT22;4998;51.024;13.828;2024-03-25T10:47:59;11.30;67.00
9919;DHT22;4998;51.024;13.828;2024-03-25T10:50:29;11.30;67.10
9919;DHT22;4998;51.024;13.828;2024-03-25T10:52:58;11.30;66.90
9919;DHT22;4998;51.024;13.828;2024-03-25T10:55:26;11.30;66.90
9919;DHT22;4998;51.024;13.828;2024-03-25T10:57:54;11.30;67.10
9919;DHT22;4998;51.024;13.828;2024-03-25T11:00:23;11.40;66.50
9919;DHT22;4998;51.024;13.828;2024-03-25T11:02:50;11.40;66.30
9919;DHT22;4998;51.024;13.828;2024-03-25T11:05:17;11.40;66.30
9919;DHT22;4998;51.024;13.828;2024-03-25T11:07:43;11.50;66.40
9919;DHT22;4998;51.024;13.828;2024-03-25T11:10:10;11.50;65.90
9919;DHT22;4998;51.024;13.828;2024-03-25T11:12:40;11.60;66.00
9919;DHT22;4998;51.024;13.828;2024-03-25T11:15:07;11.70;65.90
9919;DHT22;4998;51.024;13.828;2024-03-25T11:17:36;11.70;65.70
9919;DHT22;4998;51.024;13.828;2024-03-25T11:20:14;11.80;65.50
9919;DHT22;4998;51.024;13.828;2024-03-25T11:22:48;11.80;65.20
9919;DHT22;4998;51.024;13.828;2024-03-25T11:25:14;11.80;64.70
9919;DHT22;4998;51.024;13.828;2024-03-25T11:27:43;11.90;64.30
9919;DHT22;4998;51.024;13.828;2024-03-25T11:30:10;11.90;64.10
9919;DHT22;4998;51.024;13.828;2024-03-25T11:32:51;11.90;64.00
9919;DHT22;4998;51.024;13.828;2024-03-25T11:35:18;11.90;64.00
9919;DHT22;4998;51.024;13.828;2024-03-25T11:37:45;11.90;63.80
9919;DHT22;4998;51.024;13.828;2024-03-25T11:40:12;11.90;63.70
9919;DHT22;4998;51.024;13.828;2024-03-25T11:42:39;11.90;62.90
9919;DHT22;4998;51.024;13.828;2024-03-25T11:45:06;11.90;62.80
9919;DHT22;4998;51.024;13.828;2024-03-25T11:47:32;11.90;62.80
9919;DHT22;4998;51.024;13.828;2024-03-25T11:50:00;12.00;63.00
9919;DHT22;4998;51.024;13.828;2024-03-25T11:52:33;12.00;63.00
9919;DHT22;4998;51.024;13.828;2024-03-25T11:55:00;12.00;63.30
9919;DHT22;4998;51.024;13.828;2024-03-25T11:57:27;12.10;63.50
9919;DHT22;4998;51.024;13.828;2024-03-25T11:59:53;12.10;63.20
9919;DHT22;4998;51.024;13.828;2024-03-25T12:02:20;12.20;62.90
9919;DHT22;4998;51.024;13.828;2024-03-25T12:04:48;12.20;61.90
9919;DHT22;4998;51.024;13.828;2024-03-25T12:07:15;12.20;61.50
9919;DHT22;4998;51.024;13.828;2024-03-25T12:09:42;12.20;61.00
9919;DHT22;4998;51.024;13.828;2024-03-25T12:12:27;12.10;60.60
9919;DHT22;4998;51.024;13.828;2024-03-25T12:14:53;12.10;60.50
9919;DHT22;4998;51.024;13.828;2024-03-25T12:17:20;12.10;60.10
9919;DHT22;4998;51.024;13.828;2024-03-25T12:19:58;12.10;60.20
9919;DHT22;4998;51.024;13.828;2024-03-25T12:22:27;12.00;59.90
9919;DHT22;4998;51.024;13.828;2024-03-25T12:24:53;12.00;60.20
9919;DHT22;4998;51.024;13.828;2024-03-25T12:27:22;12.00;60.50
9919;DHT22;4998;51.024;13.828;2024-03-25T12:29:58;12.00;60.80
9919;DHT22;4998;51.024;13.828;2024-03-25T12:32:32;12.10;60.50
9919;DHT22;4998;51.024;13.828;2024-03-25T12:35:02;12.10;60.50
9919;DHT22;4998;51.024;13.828;2024-03-25T12:37:30;12.10;59.90
9919;DHT22;4998;51.024;13.828;2024-03-25T12:39:57;12.20;59.90
9919;DHT22;4998;51.024;13.828;2024-03-25T12:42:24;12.20;60.20
9919;DHT22;4998;51.024;13.828;2024-03-25T12:44:50;12.30;60.40
9919;DHT22;4998;51.024;13.828;2024-03-25T12:47:17;12.30;60.00
9919;DHT22;4998;51.024;13.828;2024-03-25T12:49:43;12.40;60.00
9919;DHT22;4998;51.024;13.828;2024-03-25T12:52:10;12.40;60.00
9919;DHT22;4998;51.024;13.828;2024-03-25T12:54:38;12.40;59.90
9919;DHT22;4998;51.024;13.828;2024-03-25T12:57:04;12.40;59.60
9919;DHT22;4998;51.024;13.828;2024-03-25T12:59:30;12.30;59.70
9919;DHT22;4998;51.024;13.828;2024-03-25T13:01:57;12.30;59.70
9919;DHT22;4998;51.024;13.828;2024-03-25T13:04:23;12.30;59.50
9919;DHT22;4998;51.024;13.828;2024-03-25T13:06:50;12.30;59.50
9919;DHT22;4998;51.024;13.828;2024-03-25T13:09:16;12.30;59.50
9919;DHT22;4998;51.024;13.828;2024-03-25T13:11:44;12.30;59.50
9919;DHT22;4998;51.024;13.828;2024-03-25T13:14:11;12.30;59.40
9919;DHT22;4998;51.024;13.828;2024-03-25T13:16:38;12.30;59.50
9919;DHT22;4998;51.024;13.828;2024-03-25T13:19:05;12.30;59.70
9919;DHT22;4998;51.024;13.828;2024-03-25T13:21:32;12.40;59.90
9919;DHT22;4998;51.024;13.828;2024-03-25T13:23:59;12.40;60.10
9919;DHT22;4998;51.024;13.828;2024-03-25T13:26:25;12.40;60.10
9919;DHT22;4998;51.024;13.828;2024-03-25T13:28:53;12.50;60.30
9919;DHT22;4998;51.024;13.828;2024-03-25T13:31:19;12.60;60.00
9919;DHT22;4998;51.024;13.828;2024-03-25T13:33:45;12.60;59.90
9919;DHT22;4998;51.024;13.828;2024-03-25T13:36:12;12.70;59.90
9919;DHT22;4998;51.024;13.828;2024-03-25T13:38:38;12.70;59.20
9919;DHT22;4998;51.024;13.828;2024-03-25T13:41:04;12.70;58.80
9919;DHT22;4998;51.024;13.828;2024-03-25T13:43:30;12.70;58.40
9919;DHT22;4998;51.024;13.828;2024-03-25T13:45:58;12.60;58.20
9919;DHT22;4998;51.024;13.828;2024-03-25T13:48:24;12.60;58.50
9919;DHT22;4998;51.024;13.828;2024-03-25T13:50:53;12.60;58.00
9919;DHT22;4998;51.024;13.828;2024-03-25T13:53:20;12.60;58.00
9919;DHT22;4998;51.024;13.828;2024-03-25T13:55:47;12.60;58.10
9919;DHT22;4998;51.024;13.828;2024-03-25T13:58:13;12.70;57.90
9919;DHT22;4998;51.024;13.828;2024-03-25T14:00:39;12.70;57.80
9919;DHT22;4998;51.024;13.828;2024-03-25T14:03:07;12.70;57.90
9919;DHT22;4998;51.024;13.828;2024-03-25T14:05:33;12.70;57.90
9919;DHT22;4998;51.024;13.828;2024-03-25T14:07:59;12.80;58.10
9919;DHT22;4998;51.024;13.828;2024-03-25T14:10:26;12.80;57.80
9919;DHT22;4998;51.024;13.828;2024-03-25T14:12:52;12.80;57.80
9919;DHT22;4998;51.024;13.828;2024-03-25T14:15:18;12.90;57.50
9919;DHT22;4998;51.024;13.828;2024-03-25T14:17:45;12.80;57.40
9919;DHT22;4998;51.024;13.828;2024-03-25T14:20:13;12.90;57.40
9919;DHT22;4998;51.024;13.828;2024-03-25T14:22:39;12.90;57.50
9919;DHT22;4998;51.024;13.828;2024-03-25T14:25:06;12.90;57.40
9919;DHT22;4998;51.024;13.828;2024-03-25T14:27:32;12.90;57.30
9919;DHT22;4998;51.024;13.828;2024-03-25T14:29:58;12.90;57.40
9919;DHT22;4998;51.024;13.828;2024-03-25T14:32:24;13.00;57.20
9919;DHT22;4998;51.024;13.828;2024-03-25T14:34:51;13.00;57.40
9919;DHT22;4998;51.024;13.828;2024-03-25T14:37:19;13.10;57.60
9919;DHT22;4998;51.024;13.828;2024-03-25T14:39:45;13.10;57.50
9919;DHT22;4998;51.024;13.828;2024-03-25T14:42:12;13.20;57.60
9919;DHT22;4998;51.024;13.828;2024-03-25T14:44:38;13.20;57.50
9919;DHT22;4998;51.024;13.828;2024-03-25T14:47:05;13.30;57.30
9919;DHT22;4998;51.024;13.828;2024-03-25T14:49:32;13.30;57.20
9919;DHT22;4998;51.024;13.828;2024-03-25T14:51:58;13.30;56.70
9919;DHT22;4998;51.024;13.828;2024-03-25T14:54:34;13.30;56.40
9919;DHT22;4998;51.024;13.828;2024-03-25T14:57:01;13.30;56.30
9919;DHT22;4998;51.024;13.828;2024-03-25T14:59:27;13.40;56.60
9919;DHT22;4998;51.024;13.828;2024-03-25T15:01:53;13.30;56.60
9919;DHT22;4998;51.024;13.828;2024-03-25T15:04:20;13.40;56.70
9919;DHT22;4998;51.024;13.828;2024-03-25T15:06:46;13.40;56.60
9919;DHT22;4998;51.024;13.828;2024-03-25T15:09:12;13.40;56.70
9919;DHT22;4998;51.024;13.828;2024-03-25T15:11:39;13.50;56.70
9919;DHT22;4998;51.024;13.828;2024-03-25T15:14:05;13.50;56.60
9919;DHT22;4998;51.024;13.828;2024-03-25T15:16:32;13.60;56.50
9919;DHT22;4998;51.024;13.828;2024-03-25T15:18:58;13.60;56.60
9919;DHT22;4998;51.024;13.828;2024-03-25T15:21:24;13.60;56.80
9919;DHT22;4998;51.024;13.828;2024-03-25T15:23:51;13.70;57.00
9919;DHT22;4998;51.024;13.828;2024-03-25T15:26:17;13.80;56.90
9919;DHT22;4998;51.024;13.828;2024-03-25T15:28:45;13.80;56.60
9919;DHT22;4998;51.024;13.828;2024-03-25T15:31:11;13.80;56.60
9919;DHT22;4998;51.024;13.828;2024-03-25T15:33:38;13.80;56.60
9919;DHT22;4998;51.024;13.828;2024-03-25T15:36:04;13.80;56.40
9919;DHT22;4998;51.024;13.828;2024-03-25T15:38:31;13.80;56.10
9919;DHT22;4998;51.024;13.828;2024-03-25T15:40:57;13.80;55.60
9919;DHT22;4998;51.024;13.828;2024-03-25T15:43:23;13.70;55.70
9919;DHT22;4998;51.024;13.828;2024-03-25T15:45:55;13.70;55.80
9919;DHT22;4998;51.024;13.828;2024-03-25T15:48:21;13.60;56.00
9919;DHT22;4998;51.024;13.828;2024-03-25T15:50:48;13.60;56.10
9919;DHT22;4998;51.024;13.828;2024-03-25T15:53:14;13.60;56.00
9919;DHT22;4998;51.024;13.828;2024-03-25T15:55:41;13.60;56.00